Time;durP1;ratioP1;P1;durP2;ratioP2;P2;SDS_P1;SDS_P2;PMS_P1;PMS_P2;Temp;Humidity;BMP_temperature;BMP_pressure;BME280_temperature;BME280_humidity;BME280_pressure;Samples;Min_cycle;Max_cycle;Signal;HPM_P1;HPM_P2
2022/08/29 00:01:07;;;;;;;5.03;2.60;;;13.70;99.90;;;;;;5111225;27;20150;-67
2022/08/29 00:03:34;;;;;;;6.50;2.92;;;13.70;99.90;;;;;;5112110;27;20490;-72
2022/08/29 00:06:00;;;;;;;5.75;2.97;;;13.70;99.90;;;;;;5111340;27;20066;-68
2022/08/29 00:08:26;;;;;;;6.72;2.80;;;13.70;99.90;;;;;;5109657;28;20393;-71
2022/08/29 00:10:52;;;;;;;8.25;2.70;;;13.70;99.90;;;;;;5117531;27;20024;-68
2022/08/29 00:13:18;;;;;;;8.07;3.45;;;13.70;99.90;;;;;;5109320;27;20043;-65
2022/08/29 00:15:45;;;;;;;6.13;2.80;;;13.70;99.90;;;;;;5096680;28;20501;-68
2022/08/29 00:18:11;;;;;;;6.57;3.55;;;13.80;99.90;;;;;;5110226;27;20044;-69
2022/08/29 00:20:36;;;;;;;6.35;2.72;;;13.80;99.90;;;;;;5109424;27;20043;-69
2022/08/29 00:23:04;;;;;;;4.90;2.95;;;13.80;99.90;;;;;;5113272;27;20044;-68
2022/08/29 00:25:30;;;;;;;6.82;3.10;;;13.80;99.90;;;;;;5111001;27;20405;-65
2022/08/29 00:27:56;;;;;;;5.47;2.83;;;13.80;99.90;;;;;;5109090;27;20089;-68
2022/08/29 00:30:23;;;;;;;4.75;2.78;;;13.80;99.90;;;;;;5116853;27;20085;-68
2022/08/29 00:32:50;;;;;;;6.22;2.63;;;13.80;99.90;;;;;;5111405;27;20032;-66
2022/08/29 00:35:23;;;;;;;5.88;2.78;;;13.90;99.90;;;;;;5116486;27;20039;-70
2022/08/29 00:37:50;;;;;;;8.88;4.65;;;13.80;99.90;;;;;;5110091;27;20080;-70
2022/08/29 00:40:20;;;;;;;6.18;3.03;;;13.90;99.90;;;;;;5112049;27;20179;-69
2022/08/29 00:42:46;;;;;;;7.10;3.00;;;13.90;99.90;;;;;;5120401;27;20051;-67
2022/08/29 00:45:13;;;;;;;4.07;2.65;;;13.90;99.90;;;;;;5124313;27;20047;-70
2022/08/29 00:47:44;;;;;;;6.78;2.97;;;13.90;99.90;;;;;;5124203;27;20031;-65
2022/08/29 00:50:19;;;;;;;7.00;3.20;;;13.90;99.90;;;;;;5116295;27;20172;-69
2022/08/29 00:52:47;;;;;;;5.82;3.05;;;13.90;99.90;;;;;;5110188;28;20071;-68
2022/08/29 00:55:20;;;;;;;7.50;2.85;;;13.90;99.90;;;;;;5119490;27;20055;-67
2022/08/29 00:57:51;;;;;;;5.90;3.25;;;13.90;99.90;;;;;;5111195;27;20123;-69
2022/08/29 01:00:17;;;;;;;6.10;3.13;;;13.90;99.90;;;;;;5106970;28;20046;-65
2022/08/29 01:02:43;;;;;;;7.20;3.33;;;14.00;99.90;;;;;;5114169;27;20044;-67
2022/08/29 01:05:10;;;;;;;7.90;3.33;;;14.00;99.90;;;;;;5112554;27;20039;-67
2022/08/29 01:07:37;;;;;;;5.80;3.38;;;14.00;99.90;;;;;;5110391;27;20032;-67
2022/08/29 01:10:05;;;;;;;6.80;3.28;;;14.00;99.90;;;;;;5114482;27;20040;-67
2022/08/29 01:12:32;;;;;;;8.55;3.95;;;14.00;99.90;;;;;;5114624;27;20036;-68
2022/08/29 01:15:01;;;;;;;6.63;3.10;;;14.00;99.90;;;;;;5110883;28;20042;-69
2022/08/29 01:17:39;;;;;;;5.32;2.83;;;14.10;99.90;;;;;;5119316;27;20461;-68
2022/08/29 01:20:28;;;;;;;4.80;2.60;;;14.00;99.90;;;;;;5107477;28;20042;-66
2022/08/29 01:23:13;;;;;;;6.85;2.90;;;14.00;99.90;;;;;;5117075;27;20079;-69
2022/08/29 01:25:45;;;;;;;4.45;2.30;;;14.10;99.90;;;;;;5120222;27;20043;-68
2022/08/29 01:28:23;;;;;;;4.82;2.58;;;14.10;99.90;;;;;;5109569;28;20043;-66
2022/08/29 01:31:06;;;;;;;5.05;2.75;;;14.10;99.90;;;;;;5117759;28;20035;-69
2022/08/29 01:33:43;;;;;;;7.82;3.10;;;14.10;99.90;;;;;;5109971;28;20032;-67
2022/08/29 01:36:13;;;;;;;7.95;3.25;;;14.10;99.90;;;;;;5107215;28;20032;-70
2022/08/29 01:38:39;;;;;;;6.97;2.97;;;14.10;99.90;;;;;;5092812;28;20366;-67
2022/08/29 01:41:05;;;;;;;7.72;3.40;;;14.10;99.90;;;;;;5122663;28;20038;-70
2022/08/29 01:43:36;;;;;;;5.43;3.13;;;14.10;99.90;;;;;;5113473;28;20070;-69
2022/08/29 01:46:02;;;;;;;5.43;2.73;;;14.10;99.90;;;;;;5122175;28;20074;-67
2022/08/29 01:48:28;;;;;;;6.90;3.25;;;14.10;99.90;;;;;;5110127;28;20537;-68
2022/08/29 01:50:55;;;;;;;7.88;3.20;;;14.10;99.90;;;;;;5112353;28;20043;-67
2022/08/29 01:53:21;;;;;;;7.53;3.28;;;14.10;99.90;;;;;;5109963;28;20545;-69
2022/08/29 01:55:46;;;;;;;7.03;3.22;;;14.10;99.90;;;;;;5099670;28;20189;-69
2022/08/29 01:58:12;;;;;;;5.38;3.10;;;14.10;99.90;;;;;;5111320;28;20054;-69
2022/08/29 02:00:38;;;;;;;5.65;3.10;;;14.20;99.90;;;;;;5118070;28;20035;-66
2022/08/29 02:03:04;;;;;;;7.28;3.00;;;14.10;99.90;;;;;;5115253;28;20046;-69
2022/08/29 02:05:30;;;;;;;4.10;2.65;;;14.10;99.90;;;;;;5118983;28;20052;-67
2022/08/29 02:07:56;;;;;;;5.10;3.20;;;14.10;99.90;;;;;;5123594;28;20180;-66
2022/08/29 02:10:22;;;;;;;5.47;3.40;;;14.20;99.90;;;;;;5124130;28;20042;-67
2022/08/29 02:12:48;;;;;;;7.47;3.25;;;14.20;99.90;;;;;;5111237;28;20031;-67
2022/08/29 02:15:15;;;;;;;6.90;3.20;;;14.20;99.90;;;;;;5123637;28;20044;-70
2022/08/29 02:17:41;;;;;;;7.90;3.40;;;14.20;99.90;;;;;;5099916;28;20492;-68
2022/08/29 02:20:07;;;;;;;8.25;3.35;;;14.20;99.90;;;;;;5129260;28;20096;-67
2022/08/29 02:22:35;;;;;;;8.25;3.70;;;14.20;99.90;;;;;;5117580;28;20050;-67
2022/08/29 02:25:01;;;;;;;10.23;4.10;;;14.20;99.90;;;;;;5119152;28;20065;-67
2022/08/29 02:27:27;;;;;;;6.35;3.60;;;14.20;99.90;;;;;;5119407;28;20039;-69
2022/08/29 02:29:53;;;;;;;7.35;4.20;;;14.10;99.90;;;;;;5120930;28;20048;-66
2022/08/29 02:32:20;;;;;;;7.40;3.80;;;14.20;99.90;;;;;;5116694;28;20035;-68
2022/08/29 02:34:46;;;;;;;5.90;3.70;;;14.20;99.90;;;;;;5123828;28;20027;-68
2022/08/29 02:37:11;;;;;;;12.45;4.35;;;14.20;99.90;;;;;;5110749;28;20061;-65
2022/08/29 02:39:37;;;;;;;8.35;3.97;;;14.20;99.90;;;;;;5125721;27;20095;-69
2022/08/29 02:42:04;;;;;;;6.82;3.60;;;14.20;99.90;;;;;;5111439;28;20107;-70
2022/08/29 02:44:29;;;;;;;5.03;3.35;;;14.20;99.90;;;;;;5129619;27;20043;-66
2022/08/29 02:46:55;;;;;;;7.20;3.72;;;14.20;99.90;;;;;;5096634;28;20058;-67
2022/08/29 02:49:21;;;;;;;9.50;3.40;;;14.20;99.90;;;;;;5098377;27;20058;-67
2022/08/29 02:51:46;;;;;;;7.57;3.17;;;14.20;99.90;;;;;;5126095;27;20114;-69
2022/08/29 02:54:12;;;;;;;6.88;3.63;;;14.30;99.90;;;;;;5111755;27;20397;-66
2022/08/29 02:56:39;;;;;;;8.27;3.83;;;14.30;99.90;;;;;;5119613;27;20804;-70
2022/08/29 02:59:07;;;;;;;6.45;3.28;;;14.20;99.90;;;;;;5116442;27;20050;-70
2022/08/29 03:01:33;;;;;;;8.55;4.20;;;14.20;99.90;;;;;;5120614;27;20043;-66
2022/08/29 03:03:59;;;;;;;6.97;3.38;;;14.20;99.90;;;;;;5115894;27;20038;-68
2022/08/29 03:06:24;;;;;;;6.65;3.28;;;14.20;99.90;;;;;;5106350;27;20039;-70
2022/08/29 03:08:50;;;;;;;4.95;3.50;;;14.20;99.90;;;;;;5117459;27;20071;-68
2022/08/29 03:11:17;;;;;;;9.80;3.47;;;14.20;99.90;;;;;;5105106;28;20059;-69
2022/08/29 03:13:44;;;;;;;8.35;3.28;;;14.30;99.90;;;;;;5116826;27;20134;-69
2022/08/29 03:16:10;;;;;;;6.65;3.33;;;14.30;99.90;;;;;;5120636;27;20031;-67
2022/08/29 03:18:36;;;;;;;9.55;3.63;;;14.30;99.90;;;;;;5111033;28;20088;-68
2022/08/29 03:21:01;;;;;;;5.25;3.10;;;14.30;99.90;;;;;;5124843;27;20035;-65
2022/08/29 03:23:27;;;;;;;6.63;3.63;;;14.30;99.90;;;;;;5115260;27;20669;-68
2022/08/29 03:25:54;;;;;;;7.40;3.20;;;14.30;99.90;;;;;;5112612;27;20040;-67
2022/08/29 03:28:20;;;;;;;8.32;3.63;;;14.30;99.90;;;;;;5115685;27;20035;-67
2022/08/29 03:30:46;;;;;;;7.78;3.47;;;14.30;99.90;;;;;;5129141;27;20114;-67
2022/08/29 03:33:12;;;;;;;7.53;3.40;;;14.30;99.90;;;;;;5111734;27;20123;-67
2022/08/29 03:35:38;;;;;;;8.23;3.22;;;14.30;99.90;;;;;;5109056;27;20039;-65
2022/08/29 03:38:03;;;;;;;7.65;3.55;;;14.30;99.90;;;;;;5109816;27;20500;-67
2022/08/29 03:40:29;;;;;;;7.88;3.45;;;14.30;99.90;;;;;;5089605;28;20036;-66
2022/08/29 03:42:55;;;;;;;6.07;3.15;;;14.30;99.90;;;;;;5114810;27;20498;-69
2022/08/29 03:45:21;;;;;;;6.22;3.40;;;14.30;99.90;;;;;;5106638;28;20048;-69
2022/08/29 03:47:47;;;;;;;6.20;3.08;;;14.30;99.90;;;;;;5112665;27;20902;-67
2022/08/29 03:50:14;;;;;;;7.55;3.47;;;14.30;99.90;;;;;;5112015;27;20044;-67
2022/08/29 03:52:42;;;;;;;6.88;3.35;;;14.30;99.90;;;;;;5109070;28;20031;-70
2022/08/29 03:55:09;;;;;;;5.85;2.85;;;14.30;99.90;;;;;;5108941;27;20031;-68
2022/08/29 03:57:35;;;;;;;10.70;3.45;;;14.30;99.90;;;;;;5104376;28;20036;-68
2022/08/29 04:00:09;;;;;;;9.65;3.38;;;14.20;99.90;;;;;;5105243;28;20065;-67
2022/08/29 04:02:35;;;;;;;6.55;3.20;;;14.20;99.90;;;;;;5110514;27;20047;-64
2022/08/29 04:05:06;;;;;;;6.93;2.92;;;14.20;99.90;;;;;;5106354;28;20374;-66
2022/08/29 04:07:41;;;;;;;5.87;3.30;;;14.20;99.90;;;;;;5107117;27;20405;-69
2022/08/29 04:10:09;;;;;;;5.97;3.35;;;14.20;99.90;;;;;;5109427;27;21265;-68
2022/08/29 04:12:35;;;;;;;6.38;3.40;;;14.20;99.90;;;;;;5115507;27;20043;-66
2022/08/29 04:15:01;;;;;;;8.43;3.60;;;14.20;99.90;;;;;;5110006;27;20042;-65
2022/08/29 04:17:26;;;;;;;7.60;3.40;;;14.20;99.90;;;;;;5100037;27;20044;-68
2022/08/29 04:19:52;;;;;;;8.80;3.42;;;14.20;99.90;;;;;;5115242;27;20046;-67
2022/08/29 04:22:17;;;;;;;6.38;3.40;;;14.10;99.90;;;;;;5113668;27;20043;-68
2022/08/29 04:24:43;;;;;;;8.02;3.40;;;14.10;99.90;;;;;;5109575;28;20055;-67
2022/08/29 04:27:09;;;;;;;7.47;3.75;;;14.10;99.90;;;;;;5107687;27;20393;-68
2022/08/29 04:29:36;;;;;;;7.63;3.45;;;14.10;99.90;;;;;;5109008;27;20052;-68
2022/08/29 04:32:03;;;;;;;6.93;3.50;;;14.10;99.90;;;;;;5108393;27;20397;-70
2022/08/29 04:34:28;;;;;;;5.75;3.30;;;14.10;99.90;;;;;;5108122;28;20107;-66
2022/08/29 04:36:54;;;;;;;8.85;3.75;;;14.10;99.90;;;;;;5117324;27;20501;-70
2022/08/29 04:39:20;;;;;;;6.57;3.20;;;14.10;99.90;;;;;;5107687;28;20047;-65
2022/08/29 04:41:45;;;;;;;10.77;3.58;;;14.10;99.90;;;;;;5107962;27;20063;-67
2022/08/29 04:44:11;;;;;;;6.85;3.42;;;14.00;99.90;;;;;;5127216;27;20046;-69
2022/08/29 04:46:38;;;;;;;19.90;5.35;;;13.90;99.90;;;;;;5112242;27;20042;-68
2022/08/29 04:49:04;;;;;;;6.07;3.38;;;13.80;99.90;;;;;;5103648;27;20039;-66
2022/08/29 04:51:30;;;;;;;6.72;3.30;;;13.80;99.90;;;;;;5112698;27;20134;-69
2022/08/29 04:53:56;;;;;;;7.50;3.30;;;13.70;99.90;;;;;;5108710;28;20031;-70
2022/08/29 04:56:22;;;;;;;6.45;3.45;;;13.60;99.90;;;;;;5110934;27;20493;-66
2022/08/29 04:58:49;;;;;;;5.72;4.03;;;13.60;99.90;;;;;;5107816;28;20501;-65
2022/08/29 05:01:18;;;;;;;8.48;3.85;;;13.50;99.90;;;;;;5106041;28;20067;-68
2022/08/29 05:03:44;;;;;;;8.80;3.70;;;13.60;99.90;;;;;;5108859;28;20070;-66
2022/08/29 05:06:12;;;;;;;6.05;3.30;;;13.50;99.90;;;;;;5107810;27;20067;-68
2022/08/29 05:08:39;;;;;;;8.85;4.05;;;13.60;99.90;;;;;;5117659;27;20050;-64
2022/08/29 05:11:08;;;;;;;5.85;3.20;;;13.60;99.90;;;;;;5107136;27;20044;-66
2022/08/29 05:13:34;;;;;;;6.68;3.40;;;13.60;99.90;;;;;;5109362;27;20035;-65
2022/08/29 05:16:04;;;;;;;8.50;3.30;;;13.70;99.90;;;;;;5110863;27;20038;-67
2022/08/29 05:18:30;;;;;;;8.20;3.33;;;13.70;99.90;;;;;;5111900;27;20050;-71
2022/08/29 05:20:56;;;;;;;5.10;3.00;;;13.70;99.90;;;;;;5123862;27;20043;-65
2022/08/29 05:23:21;;;;;;;6.10;3.20;;;13.80;99.90;;;;;;5120722;27;20044;-67
2022/08/29 05:25:58;;;;;;;7.90;3.60;;;13.80;99.90;;;;;;5120338;27;20036;-69
2022/08/29 05:28:30;;;;;;;7.13;2.80;;;13.90;99.90;;;;;;5107267;28;20040;-67
2022/08/29 05:30:55;;;;;;;6.25;3.17;;;13.90;99.90;;;;;;5125077;28;20118;-66
2022/08/29 05:33:21;;;;;;;7.35;3.30;;;13.90;99.90;;;;;;5107959;28;20161;-66
2022/08/29 05:35:47;;;;;;;9.60;3.20;;;14.00;99.90;;;;;;5107237;28;20452;-65
2022/08/29 05:38:13;;;;;;;6.70;3.63;;;14.10;99.90;;;;;;5120889;28;20122;-66
2022/08/29 05:40:39;;;;;;;8.25;3.40;;;14.10;99.90;;;;;;5090928;28;20036;-68
2022/08/29 05:43:06;;;;;;;11.25;3.55;;;14.10;99.90;;;;;;5110162;28;20047;-68
2022/08/29 05:45:31;;;;;;;7.55;3.20;;;14.20;99.90;;;;;;5110942;28;20043;-69
2022/08/29 05:48:02;;;;;;;7.43;3.67;;;14.30;99.90;;;;;;5111020;27;20046;-67
2022/08/29 05:50:28;;;;;;;10.35;3.60;;;14.40;99.90;;;;;;5110730;28;20036;-68
2022/08/29 05:52:53;;;;;;;8.50;3.70;;;14.40;99.90;;;;;;5105427;28;20067;-69
2022/08/29 05:55:19;;;;;;;7.07;3.28;;;14.50;99.90;;;;;;5114445;28;20031;-64
2022/08/29 05:57:45;;;;;;;9.07;3.05;;;14.50;99.90;;;;;;5108605;28;20096;-68
2022/08/29 06:00:11;;;;;;;9.23;3.50;;;14.60;99.90;;;;;;5110604;28;20126;-71
2022/08/29 06:02:37;;;;;;;6.20;3.03;;;14.70;99.90;;;;;;5110616;28;20035;-71
2022/08/29 06:05:03;;;;;;;11.20;3.70;;;14.70;99.90;;;;;;5110800;28;20028;-73
2022/08/29 06:07:30;;;;;;;11.10;3.53;;;14.70;99.90;;;;;;5099336;28;20032;-67
2022/08/29 06:09:55;;;;;;;10.50;3.53;;;14.70;99.90;;;;;;5105633;28;20130;-69
2022/08/29 06:12:21;;;;;;;10.85;4.30;;;14.70;99.90;;;;;;5108241;28;20462;-70
2022/08/29 06:14:47;;;;;;;8.82;3.22;;;14.80;99.90;;;;;;5132860;27;20118;-64
2022/08/29 06:17:12;;;;;;;7.53;3.20;;;14.80;99.90;;;;;;5127672;27;20094;-65
2022/08/29 06:19:39;;;;;;;6.97;3.17;;;14.90;99.90;;;;;;5112285;27;20547;-70
2022/08/29 06:22:07;;;;;;;7.38;3.83;;;14.90;99.90;;;;;;5130679;27;20051;-66
2022/08/29 06:24:33;;;;;;;8.80;3.60;;;14.90;99.90;;;;;;5092844;28;20050;-66
2022/08/29 06:27:00;;;;;;;9.15;3.33;;;15.00;99.90;;;;;;5128117;27;20145;-70
2022/08/29 06:29:26;;;;;;;7.63;3.20;;;15.00;99.90;;;;;;5106516;28;20082;-67
2022/08/29 06:31:56;;;;;;;6.75;3.47;;;15.00;99.90;;;;;;5113401;27;20498;-67
2022/08/29 06:34:22;;;;;;;5.88;3.13;;;15.10;99.90;;;;;;5110610;27;20065;-66
2022/08/29 06:36:48;;;;;;;7.53;3.10;;;15.20;99.90;;;;;;5117331;27;20039;-67
2022/08/29 06:39:14;;;;;;;8.23;2.90;;;15.20;99.90;;;;;;5110284;27;20150;-70
2022/08/29 06:41:40;;;;;;;6.50;3.15;;;15.30;99.90;;;;;;5117768;27;20063;-64
2022/08/29 06:44:07;;;;;;;9.27;3.20;;;15.30;99.90;;;;;;5116548;27;20035;-67
2022/08/29 06:46:36;;;;;;;7.07;3.55;;;15.40;99.90;;;;;;5117861;27;20053;-67
2022/08/29 06:49:05;;;;;;;8.15;3.35;;;15.40;99.90;;;;;;5111899;28;20536;-68
2022/08/29 06:51:32;;;;;;;6.10;2.60;;;15.50;99.90;;;;;;5112037;28;20044;-69
2022/08/29 06:54:02;;;;;;;6.40;2.90;;;15.60;99.90;;;;;;5113684;27;20153;-68
2022/08/29 06:56:28;;;;;;;8.10;3.25;;;15.70;99.90;;;;;;5124227;27;20043;-65
2022/08/29 06:58:54;;;;;;;7.72;3.30;;;15.70;99.90;;;;;;5131169;27;20035;-70
2022/08/29 07:01:20;;;;;;;9.88;2.97;;;15.80;99.90;;;;;;5132236;27;20039;-70
2022/08/29 07:03:46;;;;;;;7.45;2.72;;;15.80;99.90;;;;;;5132373;27;20039;-67
2022/08/29 07:06:12;;;;;;;7.13;2.95;;;15.80;99.90;;;;;;5132542;27;20046;-68
2022/08/29 07:08:38;;;;;;;11.15;2.78;;;15.90;99.90;;;;;;5112024;27;20055;-66
2022/08/29 07:11:04;;;;;;;7.93;3.00;;;16.00;99.90;;;;;;5117037;27;20046;-66
2022/08/29 07:13:30;;;;;;;6.85;2.88;;;16.00;99.90;;;;;;5130839;27;20121;-68
2022/08/29 07:15:56;;;;;;;7.82;2.70;;;16.10;99.90;;;;;;5133569;27;20178;-68
2022/08/29 07:18:22;;;;;;;9.73;3.00;;;16.10;99.90;;;;;;5130360;27;20103;-66
2022/08/29 07:20:48;;;;;;;7.18;2.80;;;16.20;99.90;;;;;;5124756;27;20127;-67
2022/08/29 07:23:14;;;;;;;9.55;3.10;;;16.20;99.90;;;;;;5128143;27;20412;-65
2022/08/29 07:25:40;;;;;;;9.05;3.08;;;16.30;99.90;;;;;;5130372;27;20084;-65
2022/08/29 07:28:06;;;;;;;9.30;2.80;;;16.40;99.90;;;;;;5126406;27;20394;-70
2022/08/29 07:30:32;;;;;;;9.57;2.97;;;16.50;99.90;;;;;;5112254;28;20084;-70
2022/08/29 07:32:58;;;;;;;8.25;2.60;;;16.60;99.90;;;;;;5114605;27;20465;-66
2022/08/29 07:35:25;;;;;;;7.00;2.90;;;16.80;99.90;;;;;;5129025;27;20393;-66
2022/08/29 07:37:54;;;;;;;7.85;2.70;;;16.90;99.90;;;;;;5131747;27;20035;-67
2022/08/29 07:40:20;;;;;;;7.72;2.80;;;17.00;99.90;;;;;;5107906;28;20079;-68
2022/08/29 07:42:46;;;;;;;10.57;2.80;;;17.30;99.90;;;;;;5093796;28;20047;-67
2022/08/29 07:45:12;;;;;;;11.60;2.58;;;17.50;99.90;;;;;;5130555;27;20489;-67
2022/08/29 07:47:38;;;;;;;7.70;2.35;;;17.60;99.90;;;;;;5116873;27;20031;-67
2022/08/29 07:50:06;;;;;;;6.75;2.45;;;17.80;99.90;;;;;;5129140;27;20398;-66
2022/08/29 07:52:32;;;;;;;7.80;2.35;;;17.80;99.90;;;;;;5111960;27;20047;-69
2022/08/29 07:54:58;;;;;;;9.50;2.53;;;17.90;99.90;;;;;;5116880;27;20420;-66
2022/08/29 07:57:24;;;;;;;8.18;2.30;;;18.00;99.90;;;;;;5127638;27;20043;-67
2022/08/29 07:59:49;;;;;;;10.55;2.70;;;18.10;99.90;;;;;;5131450;27;20556;-67
2022/08/29 08:02:15;;;;;;;7.00;1.73;;;18.20;99.90;;;;;;5119823;27;20115;-69
2022/08/29 08:04:41;;;;;;;5.15;2.05;;;18.20;99.90;;;;;;5127740;27;20042;-66
2022/08/29 08:07:07;;;;;;;6.10;2.20;;;18.30;99.90;;;;;;5128428;27;20066;-67
2022/08/29 08:09:33;;;;;;;5.22;2.08;;;18.30;99.90;;;;;;5131057;27;20058;-67
2022/08/29 08:12:00;;;;;;;5.55;1.95;;;18.40;99.90;;;;;;5127584;27;20047;-66
2022/08/29 08:14:26;;;;;;;7.90;2.42;;;18.40;99.90;;;;;;5110238;27;20039;-66
2022/08/29 08:16:51;;;;;;;5.63;2.00;;;18.40;99.90;;;;;;5111355;27;20545;-66
2022/08/29 08:19:17;;;;;;;6.90;1.88;;;18.40;99.90;;;;;;5131274;27;20473;-70
2022/08/29 08:21:43;;;;;;;6.50;1.73;;;18.50;99.90;;;;;;5130847;27;20051;-66
2022/08/29 08:24:09;;;;;;;6.90;1.70;;;18.50;99.90;;;;;;5114963;27;20375;-64
2022/08/29 08:26:35;;;;;;;8.05;1.92;;;18.50;99.90;;;;;;5127162;27;20039;-69
2022/08/29 08:29:02;;;;;;;6.50;1.88;;;18.50;99.90;;;;;;5130647;27;20043;-69
2022/08/29 08:31:28;;;;;;;7.05;2.15;;;18.40;99.90;;;;;;5130722;27;20122;-68
2022/08/29 08:33:54;;;;;;;6.60;2.20;;;18.40;99.90;;;;;;5122177;27;20198;-67
2022/08/29 08:36:28;;;;;;;10.82;2.28;;;18.50;99.90;;;;;;5116755;27;20078;-70
2022/08/29 08:38:55;;;;;;;9.32;2.72;;;18.40;99.90;;;;;;5122977;27;20040;-65
2022/08/29 08:41:29;;;;;;;5.45;1.92;;;18.40;99.90;;;;;;5128285;27;20126;-69
2022/08/29 08:43:57;;;;;;;6.43;2.08;;;18.40;99.90;;;;;;5111142;27;20043;-69
2022/08/29 08:46:41;;;;;;;6.28;2.55;;;18.40;99.90;;;;;;5128491;27;20035;-67
2022/08/29 08:49:33;;;;;;;5.20;1.90;;;18.40;99.90;;;;;;5130374;27;20039;-69
2022/08/29 08:52:09;;;;;;;7.05;2.33;;;18.50;99.90;;;;;;5115437;27;20039;-69
2022/08/29 08:54:43;;;;;;;7.57;2.22;;;18.70;99.90;;;;;;5127139;27;20030;-74
2022/08/29 08:57:12;;;;;;;8.05;2.30;;;18.80;99.90;;;;;;5090923;28;20043;-66
2022/08/29 08:59:42;;;;;;;9.48;2.22;;;19.00;99.90;;;;;;5095308;28;20104;-68
2022/08/29 09:02:29;;;;;;;10.30;2.10;;;19.20;99.90;;;;;;5129685;27;20401;-67
2022/08/29 09:05:29;;;;;;;10.50;2.30;;;19.30;99.90;;;;;;5113156;27;20043;-67
2022/08/29 09:08:12;;;;;;;6.18;2.05;;;19.40;99.90;;;;;;5106890;28;20116;-69
2022/08/29 09:11:00;;;;;;;7.15;2.40;;;19.60;99.90;;;;;;5108638;28;20126;-67
2022/08/29 09:13:49;;;;;;;8.27;2.53;;;19.70;99.90;;;;;;5127286;27;20035;-65
2022/08/29 09:16:33;;;;;;;6.45;2.20;;;19.80;99.90;;;;;;5110887;27;20035;-67
2022/08/29 09:19:09;;;;;;;9.10;2.10;;;20.10;99.90;;;;;;5127537;27;20035;-70
2022/08/29 09:22:08;;;;;;;10.00;2.13;;;20.60;99.90;;;;;;5111679;28;20048;-68
2022/08/29 09:24:41;;;;;;;7.80;1.95;;;21.10;99.90;;;;;;5011770;28;20068;-69
2022/08/29 09:27:23;;;;;;;5.28;2.00;;;21.20;99.90;;;;;;5038483;28;20080;-66
2022/08/29 09:29:56;;;;;;;9.05;2.42;;;21.30;99.90;;;;;;5027871;28;20081;-67
2022/08/29 09:32:21;;;;;;;5.78;1.98;;;21.40;99.90;;;;;;5011550;28;20072;-66
2022/08/29 09:34:47;;;;;;;6.22;2.20;;;21.30;99.90;;;;;;5022348;28;20407;-66
2022/08/29 09:37:26;;;;;;;7.55;2.20;;;21.10;99.90;;;;;;5029889;28;20036;-69
2022/08/29 09:40:03;;;;;;;9.10;2.25;;;21.00;99.90;;;;;;5027535;28;20498;-68
2022/08/29 09:42:34;;;;;;;11.60;2.00;;;21.10;99.90;;;;;;5011017;28;20049;-67
2022/08/29 09:45:15;;;;;;;7.30;2.25;;;21.00;99.90;;;;;;5011358;28;20049;-66
2022/08/29 09:47:41;;;;;;;5.97;2.10;;;21.00;99.90;;;;;;5007460;28;20139;-67
2022/08/29 09:50:25;;;;;;;9.35;2.38;;;21.00;99.90;;;;;;5015311;28;20037;-67
2022/08/29 09:52:54;;;;;;;6.38;1.95;;;20.90;99.90;;;;;;5030290;28;20927;-67
2022/08/29 09:55:23;;;;;;;7.90;2.20;;;20.80;99.90;;;;;;5034963;28;20045;-67
2022/08/29 09:58:26;;;;;;;6.55;2.13;;;20.60;99.90;;;;;;5035200;28;20037;-66
2022/08/29 10:00:59;;;;;;;12.18;2.42;;;20.50;99.90;;;;;;5048400;27;20047;-69
2022/08/29 10:03:28;;;;;;;6.18;2.20;;;20.40;99.90;;;;;;5133263;27;20450;-72
2022/08/29 10:06:18;;;;;;;3.65;1.83;;;20.40;99.90;;;;;;5109379;27;20047;-65
2022/08/29 10:08:57;;;;;;;7.40;1.77;;;20.40;99.90;;;;;;5111035;27;20040;-70
2022/08/29 10:11:54;;;;;;;6.60;1.85;;;20.40;99.90;;;;;;5121528;27;20529;-69
2022/08/29 10:14:29;;;;;;;7.32;2.03;;;20.50;99.90;;;;;;5117153;27;20096;-66
2022/08/29 10:20:03;;;;;;;8.32;2.00;;;21.10;99.90;;;;;;5112595;27;20039;-71
2022/08/29 10:22:42;;;;;;;8.25;1.98;;;21.50;99.90;;;;;;5130246;27;20042;-71
2022/08/29 10:25:19;;;;;;;4.50;2.08;;;22.10;99.90;;;;;;5104976;28;20090;-68
2022/08/29 10:27:53;;;;;;;7.45;2.30;;;22.10;99.90;;;;;;5112396;28;20050;-68
2022/08/29 10:30:22;;;;;;;7.47;2.08;;;22.10;99.90;;;;;;5130556;27;20074;-68
2022/08/29 10:33:30;;;;;;;6.70;1.77;;;21.90;99.90;;;;;;5131799;27;20043;-70
2022/08/29 10:36:11;;;;;;;6.55;2.17;;;22.20;99.90;;;;;;5105724;27;20039;-66
2022/08/29 10:38:44;;;;;;;7.20;2.00;;;22.80;99.90;;;;;;5121495;27;20401;-67
2022/08/29 10:41:16;;;;;;;7.78;2.20;;;23.40;99.90;;;;;;5115664;27;20514;-68
2022/08/29 10:44:03;;;;;;;7.30;1.80;;;23.90;99.90;;;;;;5100856;28;20054;-64
2022/08/29 10:46:36;;;;;;;7.68;1.85;;;24.00;99.90;;;;;;5115271;28;20098;-68
2022/08/29 10:49:17;;;;;;;5.57;2.33;;;23.50;99.90;;;;;;5095175;28;20052;-69
2022/08/29 10:51:58;;;;;;;6.43;2.05;;;23.30;99.90;;;;;;5123787;28;20070;-68
2022/08/29 10:54:57;;;;;;;6.75;2.10;;;23.00;99.90;;;;;;5123717;28;20050;-69
2022/08/29 10:57:54;;;;;;;9.38;2.22;;;22.90;99.90;;;;;;5115812;27;20130;-66
2022/08/29 11:00:23;;;;;;;9.45;2.05;;;22.70;99.90;;;;;;5110396;28;20128;-66
2022/08/29 11:03:16;;;;;;;7.55;2.05;;;23.00;99.90;;;;;;5112567;28;20036;-67
2022/08/29 11:05:45;;;;;;;9.80;2.45;;;23.30;99.90;;;;;;5125255;28;20077;-66
2022/08/29 11:08:26;;;;;;;7.55;2.40;;;23.40;99.90;;;;;;5108684;28;20047;-68
2022/08/29 11:10:52;;;;;;;6.00;1.95;;;23.50;99.90;;;;;;5091044;28;20111;-68
2022/08/29 11:13:45;;;;;;;5.78;2.75;;;23.40;99.90;;;;;;5117516;28;20454;-71
2022/08/29 11:16:24;;;;;;;7.32;2.20;;;23.80;99.90;;;;;;5031495;28;20059;-68
2022/08/29 11:19:15;;;;;;;8.55;1.95;;;23.80;99.90;;;;;;5031874;28;20128;-70
2022/08/29 11:21:59;;;;;;;9.27;2.22;;;23.50;99.90;;;;;;5032761;28;20428;-70
2022/08/29 11:24:29;;;;;;;5.45;2.05;;;23.20;99.90;;;;;;5031575;28;20128;-69
2022/08/29 11:27:04;;;;;;;9.38;2.65;;;22.90;99.90;;;;;;5045852;28;20053;-71
2022/08/29 11:29:45;;;;;;;7.93;2.55;;;22.60;99.90;;;;;;5032141;28;20045;-69
2022/08/29 11:32:46;;;;;;;7.15;2.20;;;22.70;99.90;;;;;;5032699;28;20511;-69
2022/08/29 11:35:20;;;;;;;5.88;2.15;;;23.00;99.90;;;;;;5031926;28;20112;-69
2022/08/29 11:37:54;;;;;;;9.23;2.38;;;22.90;99.90;;;;;;5031734;28;20140;-67
2022/08/29 11:40:40;;;;;;;6.45;2.35;;;22.80;99.90;;;;;;5031119;28;20053;-69
2022/08/29 11:43:13;;;;;;;4.28;2.10;;;22.60;99.90;;;;;;4993492;28;1105920;-69
2022/08/29 11:45:41;;;;;;;6.32;2.35;;;22.50;99.90;;;;;;5032357;28;20045;-67
2022/08/29 11:48:28;;;;;;;6.50;2.20;;;22.40;99.90;;;;;;5032396;28;20044;-68
2022/08/29 11:50:53;;;;;;;7.97;2.42;;;22.30;99.90;;;;;;5015510;28;20041;-66
2022/08/29 11:53:19;;;;;;;7.07;2.45;;;22.30;99.90;;;;;;5078212;27;20049;-68
2022/08/29 11:56:10;;;;;;;5.18;2.20;;;22.20;99.90;;;;;;5130734;27;20038;-68
2022/08/29 11:58:38;;;;;;;5.32;1.75;;;22.30;99.90;;;;;;5113526;27;20035;-69
2022/08/29 12:01:07;;;;;;;6.53;2.67;;;22.20;99.90;;;;;;5111423;27;20035;-67
2022/08/29 12:03:33;;;;;;;8.07;2.70;;;22.20;99.90;;;;;;5129906;27;20035;-69
2022/08/29 12:06:01;;;;;;;9.02;2.95;;;22.20;99.90;;;;;;5122783;27;20045;-68
2022/08/29 12:08:36;;;;;;;6.65;2.22;;;22.10;99.90;;;;;;5105476;27;20413;-68
2022/08/29 12:11:02;;;;;;;10.05;2.88;;;22.10;99.90;;;;;;5123368;27;20180;-68
2022/08/29 12:13:46;;;;;;;10.50;2.55;;;22.20;99.90;;;;;;5120921;27;20050;-72
2022/08/29 12:16:22;;;;;;;7.85;2.28;;;22.20;99.90;;;;;;5109808;27;20035;-65
2022/08/29 12:18:49;;;;;;;5.25;2.20;;;22.20;99.90;;;;;;5117636;27;20061;-67
2022/08/29 12:21:38;;;;;;;9.73;2.55;;;22.20;99.90;;;;;;5131828;27;20416;-68
2022/08/29 12:24:20;;;;;;;10.80;2.83;;;22.10;99.90;;;;;;5131343;27;20038;-67
2022/08/29 12:26:46;;;;;;;10.68;3.10;;;22.00;99.90;;;;;;5128640;27;20035;-69
2022/08/29 12:29:23;;;;;;;8.63;2.80;;;21.90;99.90;;;;;;5118919;27;20047;-72
2022/08/29 12:32:06;;;;;;;7.25;2.45;;;22.00;99.90;;;;;;5111846;27;20074;-67
2022/08/29 12:34:53;;;;;;;9.55;2.45;;;22.00;99.90;;;;;;5121566;27;20107;-64
2022/08/29 12:37:47;;;;;;;8.40;3.03;;;22.10;99.90;;;;;;5121178;27;20043;-66
2022/08/29 12:40:49;;;;;;;11.70;3.05;;;21.90;99.90;;;;;;5111081;27;20537;-68
2022/08/29 12:43:29;;;;;;;8.27;2.95;;;21.90;99.90;;;;;;5109963;27;20055;-68
2022/08/29 12:45:56;;;;;;;10.88;3.80;;;21.70;99.90;;;;;;5122685;27;20484;-69
2022/08/29 12:48:27;;;;;;;11.65;3.33;;;21.70;99.90;;;;;;5118036;27;20046;-66
2022/08/29 12:50:53;;;;;;;9.55;3.58;;;21.70;99.90;;;;;;5111421;28;20415;-65
2022/08/29 12:53:33;;;;;;;9.20;3.22;;;21.70;99.90;;;;;;5128303;27;20042;-69
2022/08/29 12:56:00;;;;;;;7.78;2.83;;;21.70;99.90;;;;;;5120083;27;20035;-65
2022/08/29 12:58:39;;;;;;;8.82;3.25;;;21.70;99.90;;;;;;5110796;27;20088;-65
2022/08/29 13:01:29;;;;;;;8.05;3.05;;;21.70;99.90;;;;;;5112338;27;20055;-67
2022/08/29 13:04:16;;;;;;;8.43;2.83;;;21.70;99.90;;;;;;5111802;27;20047;-70
2022/08/29 13:07:06;;;;;;;10.32;3.72;;;21.70;99.90;;;;;;5123987;27;20036;-67